sensor_id;sensor_type;location;lat;lon;timestamp;pressure;altitude;pressure_sealevel;temperature;humidity
78317;BME280;67572;50.930;18.276;2023-05-29T00:00:49;99250.78;;;9.31;67.47
78317;BME280;67572;50.930;18.276;2023-05-29T00:03:55;99253.97;;;9.79;66.07
78317;BME280;67572;50.930;18.276;2023-05-29T00:06:59;99246.59;;;9.70;66.31
78317;BME280;67572;50.930;18.276;2023-05-29T00:10:07;99251.69;;;9.73;65.68
78317;BME280;67572;50.930;18.276;2023-05-29T00:13:12;99249.75;;;10.04;64.88
78317;BME280;67572;50.930;18.276;2023-05-29T00:16:15;99248.44;;;9.82;65.25
78317;BME280;67572;50.930;18.276;2023-05-29T00:19:20;99250.06;;;9.85;65.38
78317;BME280;67572;50.930;18.276;2023-05-29T00:22:25;99252.38;;;9.77;66.40
78317;BME280;67572;50.930;18.276;2023-05-29T00:25:31;99242.59;;;9.77;65.81
78317;BME280;67572;50.930;18.276;2023-05-29T00:28:36;99249.16;;;10.13;65.19
78317;BME280;67572;50.930;18.276;2023-05-29T00:31:40;99246.22;;;9.76;65.63
78317;BME280;67572;50.930;18.276;2023-05-29T00:34:44;99249.13;;;9.86;65.83
78317;BME280;67572;50.930;18.276;2023-05-29T00:37:48;99238.53;;;9.71;65.96
78317;BME280;67572;50.930;18.276;2023-05-29T00:40:53;99240.59;;;9.81;65.91
78317;BME280;67572;50.930;18.276;2023-05-29T00:43:56;99232.75;;;9.51;66.79
78317;BME280;67572;50.930;18.276;2023-05-29T00:47:00;99231.34;;;10.00;65.99
78317;BME280;67572;50.930;18.276;2023-05-29T00:50:05;99233.78;;;10.04;65.64
78317;BME280;67572;50.930;18.276;2023-05-29T00:53:10;99232.22;;;9.87;65.91
78317;BME280;67572;50.930;18.276;2023-05-29T00:56:15;99231.31;;;9.59;67.01
78317;BME280;67572;50.930;18.276;2023-05-29T00:59:21;99236.84;;;9.42;67.79
78317;BME280;67572;50.930;18.276;2023-05-29T01:02:26;99234.38;;;9.53;67.49
78317;BME280;67572;50.930;18.276;2023-05-29T01:05:33;99226.69;;;9.49;67.63
78317;BME280;67572;50.930;18.276;2023-05-29T01:08:37;99232.13;;;9.47;67.63
78317;BME280;67572;50.930;18.276;2023-05-29T01:11:52;99234.00;;;9.16;68.69
78317;BME280;67572;50.930;18.276;2023-05-29T01:15:09;99232.09;;;9.18;68.17
78317;BME280;67572;50.930;18.276;2023-05-29T01:18:23;99233.63;;;9.23;68.64
78317;BME280;67572;50.930;18.276;2023-05-29T01:21:45;99235.03;;;9.00;69.21
78317;BME280;67572;50.930;18.276;2023-05-29T01:25:11;99239.31;;;9.16;69.28
78317;BME280;67572;50.930;18.276;2023-05-29T01:28:20;99233.31;;;8.99;69.05
78317;BME280;67572;50.930;18.276;2023-05-29T01:31:26;99231.97;;;8.77;69.30
78317;BME280;67572;50.930;18.276;2023-05-29T01:34:32;99228.03;;;8.69;70.21
78317;BME280;67572;50.930;18.276;2023-05-29T01:37:37;99234.13;;;8.41;71.38
78317;BME280;67572;50.930;18.276;2023-05-29T01:40:41;99234.22;;;8.39;71.11
78317;BME280;67572;50.930;18.276;2023-05-29T01:43:48;99232.38;;;8.55;71.23
78317;BME280;67572;50.930;18.276;2023-05-29T01:46:53;99232.22;;;9.17;70.02
78317;BME280;67572;50.930;18.276;2023-05-29T01:49:57;99231.03;;;9.78;68.21
78317;BME280;67572;50.930;18.276;2023-05-29T01:53:03;99230.31;;;9.89;67.35
78317;BME280;67572;50.930;18.276;2023-05-29T01:56:07;99229.25;;;9.64;67.24
78317;BME280;67572;50.930;18.276;2023-05-29T01:59:15;99231.41;;;9.72;67.79
78317;BME280;67572;50.930;18.276;2023-05-29T02:02:21;99222.81;;;9.26;68.00
78317;BME280;67572;50.930;18.276;2023-05-29T02:05:25;99212.94;;;9.70;68.13
78317;BME280;67572;50.930;18.276;2023-05-29T02:08:29;99215.13;;;10.05;67.11
78317;BME280;67572;50.930;18.276;2023-05-29T02:11:34;99216.31;;;10.14;66.53
78317;BME280;67572;50.930;18.276;2023-05-29T02:14:39;99227.28;;;9.95;66.86
78317;BME280;67572;50.930;18.276;2023-05-29T02:17:44;99217.31;;;9.98;66.43
78317;BME280;67572;50.930;18.276;2023-05-29T02:20:48;99218.81;;;10.02;66.53
78317;BME280;67572;50.930;18.276;2023-05-29T02:23:55;99217.50;;;10.37;65.24
78317;BME280;67572;50.930;18.276;2023-05-29T02:27:01;99221.72;;;10.12;66.23
78317;BME280;67572;50.930;18.276;2023-05-29T02:30:12;99210.34;;;10.10;66.33
78317;BME280;67572;50.930;18.276;2023-05-29T02:33:16;99214.09;;;9.93;66.32
78317;BME280;67572;50.930;18.276;2023-05-29T02:36:20;99213.66;;;10.28;65.01
78317;BME280;67572;50.930;18.276;2023-05-29T02:39:25;99212.06;;;9.70;66.23
78317;BME280;67572;50.930;18.276;2023-05-29T02:42:28;99207.56;;;9.29;67.47
78317;BME280;67572;50.930;18.276;2023-05-29T02:45:33;99204.41;;;9.37;67.88
78317;BME280;67572;50.930;18.276;2023-05-29T02:48:37;99206.06;;;9.39;68.76
78317;BME280;67572;50.930;18.276;2023-05-29T02:51:40;99212.50;;;9.07;68.45
78317;BME280;67572;50.930;18.276;2023-05-29T02:54:44;99207.19;;;8.93;69.83
78317;BME280;67572;50.930;18.276;2023-05-29T02:57:49;99201.59;;;8.97;69.51
78317;BME280;67572;50.930;18.276;2023-05-29T03:00:56;99204.06;;;9.00;70.19
78317;BME280;67572;50.930;18.276;2023-05-29T03:04:01;99207.13;;;8.64;69.54
78317;BME280;67572;50.930;18.276;2023-05-29T03:07:05;99198.38;;;8.48;70.17
78317;BME280;67572;50.930;18.276;2023-05-29T03:10:10;99195.44;;;8.06;71.88
78317;BME280;67572;50.930;18.276;2023-05-29T03:13:13;99203.91;;;8.13;72.85
78317;BME280;67572;50.930;18.276;2023-05-29T03:16:27;99207.97;;;8.34;71.01
78317;BME280;67572;50.930;18.276;2023-05-29T03:19:32;99208.75;;;8.21;71.65
78317;BME280;67572;50.930;18.276;2023-05-29T03:22:36;99213.28;;;8.19;72.70
78317;BME280;67572;50.930;18.276;2023-05-29T03:25:40;99208.44;;;8.11;72.65
78317;BME280;67572;50.930;18.276;2023-05-29T03:28:44;99208.50;;;8.41;72.31
78317;BME280;67572;50.930;18.276;2023-05-29T03:31:49;99207.41;;;8.14;72.57
78317;BME280;67572;50.930;18.276;2023-05-29T03:35:01;99214.56;;;8.27;73.56
78317;BME280;67572;50.930;18.276;2023-05-29T03:38:05;99215.19;;;8.63;73.09
78317;BME280;67572;50.930;18.276;2023-05-29T03:41:12;99218.06;;;8.88;71.65
78317;BME280;67572;50.930;18.276;2023-05-29T03:44:16;99212.59;;;9.34;70.54
78317;BME280;67572;50.930;18.276;2023-05-29T03:47:24;99217.13;;;9.03;71.37
78317;BME280;67572;50.930;18.276;2023-05-29T03:50:29;99225.09;;;9.17;71.71
78317;BME280;67572;50.930;18.276;2023-05-29T03:53:33;99231.44;;;9.29;71.65
78317;BME280;67572;50.930;18.276;2023-05-29T03:56:44;99235.03;;;9.42;71.28
78317;BME280;67572;50.930;18.276;2023-05-29T03:59:50;99228.94;;;9.83;70.63
78317;BME280;67572;50.930;18.276;2023-05-29T04:02:56;99229.81;;;9.69;71.33
78317;BME280;67572;50.930;18.276;2023-05-29T04:06:00;99223.59;;;9.97;70.92
78317;BME280;67572;50.930;18.276;2023-05-29T04:09:04;99221.97;;;9.95;71.29
78317;BME280;67572;50.930;18.276;2023-05-29T04:12:15;99226.25;;;9.97;72.04
78317;BME280;67572;50.930;18.276;2023-05-29T04:15:19;99235.44;;;10.06;72.15
78317;BME280;67572;50.930;18.276;2023-05-29T04:18:33;99235.81;;;10.54;71.61
78317;BME280;67572;50.930;18.276;2023-05-29T04:21:46;99231.00;;;10.73;71.34
78317;BME280;67572;50.930;18.276;2023-05-29T04:24:54;99239.44;;;10.53;72.39
78317;BME280;67572;50.930;18.276;2023-05-29T04:28:05;99239.88;;;10.60;71.55
78317;BME280;67572;50.930;18.276;2023-05-29T04:31:11;99250.56;;;10.85;71.73
78317;BME280;67572;50.930;18.276;2023-05-29T04:34:21;99250.91;;;11.06;71.90
78317;BME280;67572;50.930;18.276;2023-05-29T04:37:24;99251.44;;;10.98;70.86
78317;BME280;67572;50.930;18.276;2023-05-29T04:40:43;99248.25;;;11.31;70.33
78317;BME280;67572;50.930;18.276;2023-05-29T04:43:51;99253.47;;;11.46;71.38
78317;BME280;67572;50.930;18.276;2023-05-29T04:47:03;99259.59;;;11.84;70.21
78317;BME280;67572;50.930;18.276;2023-05-29T04:50:20;99255.25;;;12.20;71.44
78317;BME280;67572;50.930;18.276;2023-05-29T04:53:50;99261.13;;;12.12;70.82
78317;BME280;67572;50.930;18.276;2023-05-29T04:56:55;99263.13;;;12.21;71.94
78317;BME280;67572;50.930;18.276;2023-05-29T05:00:04;99263.50;;;12.76;69.78
78317;BME280;67572;50.930;18.276;2023-05-29T05:03:11;99263.97;;;12.70;70.75
78317;BME280;67572;50.930;18.276;2023-05-29T05:06:20;99272.75;;;12.83;71.06
78317;BME280;67572;50.930;18.276;2023-05-29T05:09:23;99272.81;;;13.05;70.46
78317;BME280;67572;50.930;18.276;2023-05-29T05:12:28;99272.59;;;13.09;70.30
78317;BME280;67572;50.930;18.276;2023-05-29T05:15:34;99271.56;;;13.45;69.09
78317;BME280;67572;50.930;18.276;2023-05-29T05:18:39;99269.91;;;13.55;68.41
78317;BME280;67572;50.930;18.276;2023-05-29T05:21:50;99272.94;;;13.73;67.44
78317;BME280;67572;50.930;18.276;2023-05-29T05:24:56;99274.00;;;14.15;66.61
78317;BME280;67572;50.930;18.276;2023-05-29T05:28:01;99270.00;;;13.98;66.00
78317;BME280;67572;50.930;18.276;2023-05-29T05:31:08;99268.59;;;14.26;64.92
78317;BME280;67572;50.930;18.276;2023-05-29T05:34:21;99279.53;;;14.34;65.64
78317;BME280;67572;50.930;18.276;2023-05-29T05:37:26;99282.28;;;14.66;67.25
78317;BME280;67572;50.930;18.276;2023-05-29T05:40:40;99274.31;;;14.76;65.61
78317;BME280;67572;50.930;18.276;2023-05-29T05:43:52;99283.41;;;14.85;63.95
78317;BME280;67572;50.930;18.276;2023-05-29T05:47:12;99281.78;;;15.14;61.96
78317;BME280;67572;50.930;18.276;2023-05-29T05:50:18;99291.47;;;15.26;61.21
78317;BME280;67572;50.930;18.276;2023-05-29T05:53:26;99284.06;;;15.40;59.93
78317;BME280;67572;50.930;18.276;2023-05-29T05:56:36;99285.16;;;15.58;57.38
78317;BME280;67572;50.930;18.276;2023-05-29T05:59:49;99280.22;;;15.84;57.43
78317;BME280;67572;50.930;18.276;2023-05-29T06:02:53;99284.06;;;15.91;58.00
78317;BME280;67572;50.930;18.276;2023-05-29T06:06:18;99281.41;;;16.01;56.60
78317;BME280;67572;50.930;18.276;2023-05-29T06:09:24;99282.63;;;16.27;54.26
78317;BME280;67572;50.930;18.276;2023-05-29T06:12:30;99281.00;;;16.55;53.27
78317;BME280;67572;50.930;18.276;2023-05-29T06:15:43;99285.34;;;16.47;54.81
78317;BME280;67572;50.930;18.276;2023-05-29T06:18:50;99283.69;;;16.65;55.07
78317;BME280;67572;50.930;18.276;2023-05-29T06:21:54;99278.47;;;16.92;55.84
78317;BME280;67572;50.930;18.276;2023-05-29T06:25:00;99281.03;;;17.04;58.79
78317;BME280;67572;50.930;18.276;2023-05-29T06:28:07;99279.06;;;16.86;53.84
78317;BME280;67572;50.930;18.276;2023-05-29T06:31:11;99289.94;;;16.95;54.70
78317;BME280;67572;50.930;18.276;2023-05-29T06:34:15;99293.84;;;17.29;51.98
78317;BME280;67572;50.930;18.276;2023-05-29T06:37:19;99285.88;;;17.57;53.62
78317;BME280;67572;50.930;18.276;2023-05-29T06:40:24;99290.72;;;17.43;53.24
78317;BME280;67572;50.930;18.276;2023-05-29T06:43:28;99296.44;;;17.02;52.96
78317;BME280;67572;50.930;18.276;2023-05-29T06:46:34;99289.34;;;17.20;52.56
78317;BME280;67572;50.930;18.276;2023-05-29T06:49:41;99291.88;;;17.41;52.06
78317;BME280;67572;50.930;18.276;2023-05-29T06:52:49;99294.06;;;17.65;52.11
78317;BME280;67572;50.930;18.276;2023-05-29T06:56:10;99295.75;;;17.75;52.72
78317;BME280;67572;50.930;18.276;2023-05-29T06:59:28;99290.25;;;17.77;51.99
78317;BME280;67572;50.930;18.276;2023-05-29T07:02:32;99302.31;;;18.00;51.53
78317;BME280;67572;50.930;18.276;2023-05-29T07:05:47;99301.09;;;18.13;49.43
78317;BME280;67572;50.930;18.276;2023-05-29T07:08:52;99303.13;;;18.38;50.79
78317;BME280;67572;50.930;18.276;2023-05-29T07:11:59;99312.09;;;18.29;49.81
78317;BME280;67572;50.930;18.276;2023-05-29T07:15:05;99310.72;;;18.70;49.34
78317;BME280;67572;50.930;18.276;2023-05-29T07:18:15;99311.81;;;18.50;48.45
78317;BME280;67572;50.930;18.276;2023-05-29T07:21:19;99316.00;;;18.62;47.40
78317;BME280;67572;50.930;18.276;2023-05-29T07:24:23;99315.59;;;18.67;47.93
78317;BME280;67572;50.930;18.276;2023-05-29T07:27:28;99326.75;;;18.44;47.67
78317;BME280;67572;50.930;18.276;2023-05-29T07:30:41;99321.38;;;18.62;47.51
78317;BME280;67572;50.930;18.276;2023-05-29T07:33:51;99328.06;;;18.85;47.37
78317;BME280;67572;50.930;18.276;2023-05-29T07:37:19;99323.44;;;18.78;46.55
78317;BME280;67572;50.930;18.276;2023-05-29T07:40:27;99327.81;;;18.79;46.34
78317;BME280;67572;50.930;18.276;2023-05-29T07:43:48;99329.28;;;19.09;41.56
78317;BME280;67572;50.930;18.276;2023-05-29T07:46:58;99328.50;;;19.17;42.80
78317;BME280;67572;50.930;18.276;2023-05-29T07:50:10;99332.50;;;19.30;42.29
78317;BME280;67572;50.930;18.276;2023-05-29T07:53:13;99336.13;;;19.21;45.35
78317;BME280;67572;50.930;18.276;2023-05-29T07:56:19;99335.50;;;19.09;44.14
78317;BME280;67572;50.930;18.276;2023-05-29T07:59:25;99332.09;;;19.61;44.71
78317;BME280;67572;50.930;18.276;2023-05-29T08:02:30;99325.34;;;19.21;41.91
78317;BME280;67572;50.930;18.276;2023-05-29T08:06:05;99324.94;;;19.78;42.32
78317;BME280;67572;50.930;18.276;2023-05-29T08:09:11;99330.25;;;19.61;39.91
78317;BME280;67572;50.930;18.276;2023-05-29T08:12:22;99332.88;;;19.79;43.06
78317;BME280;67572;50.930;18.276;2023-05-29T08:15:30;99334.06;;;19.77;42.48
78317;BME280;67572;50.930;18.276;2023-05-29T08:18:34;99334.13;;;20.19;42.72
78317;BME280;67572;50.930;18.276;2023-05-29T08:21:52;99343.31;;;20.85;42.61
78317;BME280;67572;50.930;18.276;2023-05-29T08:24:56;99334.13;;;20.19;39.37
78317;BME280;67572;50.930;18.276;2023-05-29T08:28:06;99334.03;;;20.79;42.49
78317;BME280;67572;50.930;18.276;2023-05-29T08:31:14;99340.19;;;19.61;39.62
78317;BME280;67572;50.930;18.276;2023-05-29T08:34:25;99343.41;;;19.64;41.60
78317;BME280;67572;50.930;18.276;2023-05-29T08:37:29;99341.19;;;20.54;39.90
78317;BME280;67572;50.930;18.276;2023-05-29T08:40:37;99341.75;;;20.66;36.00
78317;BME280;67572;50.930;18.276;2023-05-29T08:43:42;99338.66;;;21.44;36.67
78317;BME280;67572;50.930;18.276;2023-05-29T08:46:49;99337.59;;;20.96;37.74
78317;BME280;67572;50.930;18.276;2023-05-29T08:50:11;99342.09;;;20.29;37.63
78317;BME280;67572;50.930;18.276;2023-05-29T08:53:17;99337.53;;;20.29;37.95
78317;BME280;67572;50.930;18.276;2023-05-29T08:56:31;99342.16;;;20.87;38.57
78317;BME280;67572;50.930;18.276;2023-05-29T08:59:37;99345.81;;;20.70;39.54
78317;BME280;67572;50.930;18.276;2023-05-29T09:02:44;99346.34;;;20.82;38.73
78317;BME280;67572;50.930;18.276;2023-05-29T09:05:48;99341.16;;;20.96;37.68
78317;BME280;67572;50.930;18.276;2023-05-29T09:08:52;99341.16;;;20.96;36.97
78317;BME280;67572;50.930;18.276;2023-05-29T09:11:56;99345.94;;;20.52;35.75
78317;BME280;67572;50.930;18.276;2023-05-29T09:15:01;99352.25;;;20.85;37.54
78317;BME280;67572;50.930;18.276;2023-05-29T09:18:16;99345.06;;;21.26;35.73
78317;BME280;67572;50.930;18.276;2023-05-29T09:21:27;99343.56;;;21.56;36.10
78317;BME280;67572;50.930;18.276;2023-05-29T09:24:32;99352.66;;;21.88;38.25
78317;BME280;67572;50.930;18.276;2023-05-29T09:27:39;99347.31;;;21.47;36.72
78317;BME280;67572;50.930;18.276;2023-05-29T09:30:43;99343.19;;;21.11;35.07
78317;BME280;67572;50.930;18.276;2023-05-29T09:33:52;99347.63;;;21.44;35.65
78317;BME280;67572;50.930;18.276;2023-05-29T09:37:02;99347.00;;;22.06;36.91
78317;BME280;67572;50.930;18.276;2023-05-29T09:40:11;99341.66;;;22.53;37.49
78317;BME280;67572;50.930;18.276;2023-05-29T09:43:18;99334.59;;;22.67;34.60
78317;BME280;67572;50.930;18.276;2023-05-29T09:46:22;99330.66;;;21.83;35.04
78317;BME280;67572;50.930;18.276;2023-05-29T09:49:28;99333.69;;;21.88;38.07
78317;BME280;67572;50.930;18.276;2023-05-29T09:52:34;99340.22;;;22.26;36.39
78317;BME280;67572;50.930;18.276;2023-05-29T09:55:43;99337.56;;;22.10;37.93
78317;BME280;67572;50.930;18.276;2023-05-29T09:58:50;99339.63;;;21.75;37.29
78317;BME280;67572;50.930;18.276;2023-05-29T10:02:00;99341.53;;;21.34;35.07
78317;BME280;67572;50.930;18.276;2023-05-29T10:05:07;99328.50;;;21.78;34.39
78317;BME280;67572;50.930;18.276;2023-05-29T10:08:14;99332.03;;;22.42;35.74
78317;BME280;67572;50.930;18.276;2023-05-29T10:11:21;99331.53;;;22.39;34.07
78317;BME280;67572;50.930;18.276;2023-05-29T10:14:42;99331.22;;;21.46;36.70
78317;BME280;67572;50.930;18.276;2023-05-29T10:18:07;99329.50;;;21.77;35.42
78317;BME280;67572;50.930;18.276;2023-05-29T10:21:16;99335.69;;;22.02;36.50
78317;BME280;67572;50.930;18.276;2023-05-29T10:24:25;99334.00;;;22.57;36.26
78317;BME280;67572;50.930;18.276;2023-05-29T10:30:41;99322.41;;;21.84;34.99
78317;BME280;67572;50.930;18.276;2023-05-29T10:33:55;99324.88;;;22.02;33.98
78317;BME280;67572;50.930;18.276;2023-05-29T10:37:06;99321.31;;;22.02;34.24
78317;BME280;67572;50.930;18.276;2023-05-29T10:40:11;99314.03;;;22.02;34.02
78317;BME280;67572;50.930;18.276;2023-05-29T10:43:33;99315.28;;;22.70;34.26
78317;BME280;67572;50.930;18.276;2023-05-29T10:47:03;99322.41;;;23.02;36.36
78317;BME280;67572;50.930;18.276;2023-05-29T10:50:09;99320.66;;;22.78;36.06
78317;BME280;67572;50.930;18.276;2023-05-29T10:53:17;99327.25;;;22.53;33.05
78317;BME280;67572;50.930;18.276;2023-05-29T10:56:28;99324.31;;;22.62;33.63
78317;BME280;67572;50.930;18.276;2023-05-29T10:59:40;99320.25;;;22.89;35.33
78317;BME280;67572;50.930;18.276;2023-05-29T11:02:52;99315.94;;;23.26;32.94
78317;BME280;67572;50.930;18.276;2023-05-29T11:05:56;99315.28;;;23.24;33.14
78317;BME280;67572;50.930;18.276;2023-05-29T11:09:07;99309.44;;;22.81;32.64
78317;BME280;67572;50.930;18.276;2023-05-29T11:12:29;99302.81;;;23.15;34.37
78317;BME280;67572;50.930;18.276;2023-05-29T11:15:38;99304.69;;;22.91;32.53
78317;BME280;67572;50.930;18.276;2023-05-29T11:18:44;99304.41;;;23.47;33.61
78317;BME280;67572;50.930;18.276;2023-05-29T11:21:59;99296.56;;;22.21;33.69
78317;BME280;67572;50.930;18.276;2023-05-29T11:25:11;99300.56;;;23.18;34.77
78317;BME280;67572;50.930;18.276;2023-05-29T11:28:21;99301.25;;;23.58;34.33
78317;BME280;67572;50.930;18.276;2023-05-29T11:31:40;99311.38;;;23.41;33.10
78317;BME280;67572;50.930;18.276;2023-05-29T11:34:46;99304.47;;;23.76;31.57
78317;BME280;67572;50.930;18.276;2023-05-29T11:38:01;99312.94;;;23.59;32.25
78317;BME280;67572;50.930;18.276;2023-05-29T11:41:13;99314.31;;;24.22;33.07
78317;BME280;67572;50.930;18.276;2023-05-29T11:44:26;99304.38;;;23.70;32.02
78317;BME280;67572;50.930;18.276;2023-05-29T11:47:30;99311.50;;;22.79;30.46
78317;BME280;67572;50.930;18.276;2023-05-29T11:50:40;99310.22;;;23.96;29.05
78317;BME280;67572;50.930;18.276;2023-05-29T11:53:52;99313.28;;;24.08;30.67
78317;BME280;67572;50.930;18.276;2023-05-29T11:57:09;99300.94;;;23.91;31.47
78317;BME280;67572;50.930;18.276;2023-05-29T12:00:14;99292.66;;;23.69;31.35
78317;BME280;67572;50.930;18.276;2023-05-29T12:03:43;99298.03;;;23.54;30.70
78317;BME280;67572;50.930;18.276;2023-05-29T12:06:47;99298.41;;;23.37;31.07
78317;BME280;67572;50.930;18.276;2023-05-29T12:09:51;99292.22;;;23.66;31.03
78317;BME280;67572;50.930;18.276;2023-05-29T12:13:05;99301.78;;;23.53;32.15
78317;BME280;67572;50.930;18.276;2023-05-29T12:16:20;99302.16;;;23.13;30.37
78317;BME280;67572;50.930;18.276;2023-05-29T12:19:24;99301.78;;;24.35;31.07
78317;BME280;67572;50.930;18.276;2023-05-29T12:22:43;99292.41;;;24.08;30.08
78317;BME280;67572;50.930;18.276;2023-05-29T12:25:47;99301.44;;;24.60;29.90
78317;BME280;67572;50.930;18.276;2023-05-29T12:29:02;99287.34;;;25.07;28.98
78317;BME280;67572;50.930;18.276;2023-05-29T12:32:15;99272.63;;;24.29;30.08
78317;BME280;67572;50.930;18.276;2023-05-29T12:35:20;99277.53;;;23.75;29.94
78317;BME280;67572;50.930;18.276;2023-05-29T12:38:23;99279.13;;;23.84;29.03
78317;BME280;67572;50.930;18.276;2023-05-29T12:41:35;99272.25;;;24.03;29.50
78317;BME280;67572;50.930;18.276;2023-05-29T12:44:53;99272.81;;;24.43;30.34
78317;BME280;67572;50.930;18.276;2023-05-29T12:48:01;99265.31;;;25.02;30.00
78317;BME280;67572;50.930;18.276;2023-05-29T12:51:05;99272.88;;;24.64;30.20
78317;BME280;67572;50.930;18.276;2023-05-29T12:54:11;99256.72;;;24.84;29.81
78317;BME280;67572;50.930;18.276;2023-05-29T12:57:17;99261.56;;;25.53;29.47
78317;BME280;67572;50.930;18.276;2023-05-29T13:00:33;99258.28;;;25.36;28.34
78317;BME280;67572;50.930;18.276;2023-05-29T13:03:55;99260.06;;;24.28;31.48
78317;BME280;67572;50.930;18.276;2023-05-29T13:07:08;99253.28;;;24.54;29.98
78317;BME280;67572;50.930;18.276;2023-05-29T13:10:29;99245.97;;;23.74;31.45
78317;BME280;67572;50.930;18.276;2023-05-29T13:13:34;99246.22;;;23.79;31.88
78317;BME280;67572;50.930;18.276;2023-05-29T13:16:39;99239.31;;;23.76;30.98
78317;BME280;67572;50.930;18.276;2023-05-29T13:19:43;99236.22;;;25.24;30.57
78317;BME280;67572;50.930;18.276;2023-05-29T13:22:48;99235.72;;;24.71;29.90
78317;BME280;67572;50.930;18.276;2023-05-29T13:25:52;99224.50;;;24.59;28.68
78317;BME280;67572;50.930;18.276;2023-05-29T13:28:56;99226.09;;;25.39;30.94
78317;BME280;67572;50.930;18.276;2023-05-29T13:32:02;99230.34;;;23.76;31.37
78317;BME280;67572;50.930;18.276;2023-05-29T13:35:12;99220.13;;;25.57;29.65
78317;BME280;67572;50.930;18.276;2023-05-29T13:38:25;99225.44;;;25.09;29.78
78317;BME280;67572;50.930;18.276;2023-05-29T13:41:49;99216.06;;;25.46;29.76
78317;BME280;67572;50.930;18.276;2023-05-29T13:45:07;99220.84;;;26.62;27.25
78317;BME280;67572;50.930;18.276;2023-05-29T13:48:13;99219.84;;;24.96;29.34
78317;BME280;67572;50.930;18.276;2023-05-29T13:51:18;99221.47;;;25.40;29.63
78317;BME280;67572;50.930;18.276;2023-05-29T13:54:22;99219.34;;;26.05;28.50
78317;BME280;67572;50.930;18.276;2023-05-29T13:57:31;99220.75;;;25.25;29.39
78317;BME280;67572;50.930;18.276;2023-05-29T14:00:35;99219.19;;;25.71;28.26
78317;BME280;67572;50.930;18.276;2023-05-29T14:03:56;99207.78;;;25.96;27.60
78317;BME280;67572;50.930;18.276;2023-05-29T14:07:00;99213.88;;;25.63;29.88
78317;BME280;67572;50.930;18.276;2023-05-29T14:10:06;99211.44;;;25.75;29.40
78317;BME280;67572;50.930;18.276;2023-05-29T14:13:12;99208.72;;;26.77;29.07
78317;BME280;67572;50.930;18.276;2023-05-29T14:16:16;99200.09;;;25.37;29.02
78317;BME280;67572;50.930;18.276;2023-05-29T14:19:22;99199.47;;;25.69;29.68
78317;BME280;67572;50.930;18.276;2023-05-29T14:22:27;99204.78;;;25.00;28.95
78317;BME280;67572;50.930;18.276;2023-05-29T14:25:53;99196.47;;;25.92;30.21
78317;BME280;67572;50.930;18.276;2023-05-29T14:29:02;99192.41;;;26.23;29.78
78317;BME280;67572;50.930;18.276;2023-05-29T14:32:18;99182.84;;;25.92;28.28
78317;BME280;67572;50.930;18.276;2023-05-29T14:35:49;99186.69;;;26.99;28.92
78317;BME280;67572;50.930;18.276;2023-05-29T14:39:07;99180.56;;;25.96;27.87
78317;BME280;67572;50.930;18.276;2023-05-29T14:42:15;99179.47;;;26.45;30.24
78317;BME280;67572;50.930;18.276;2023-05-29T14:45:19;99181.75;;;25.52;28.69
78317;BME280;67572;50.930;18.276;2023-05-29T14:48:44;99185.81;;;24.85;29.70
78317;BME280;67572;50.930;18.276;2023-05-29T14:51:50;99171.72;;;24.97;28.33
78317;BME280;67572;50.930;18.276;2023-05-29T14:54:54;99168.66;;;26.10;28.50
78317;BME280;67572;50.930;18.276;2023-05-29T14:58:09;99177.75;;;26.37;27.64
78317;BME280;67572;50.930;18.276;2023-05-29T15:01:28;99167.00;;;24.84;30.44
78317;BME280;67572;50.930;18.276;2023-05-29T15:04:42;99164.88;;;24.37;30.94
78317;BME280;67572;50.930;18.276;2023-05-29T15:07:48;99173.38;;;24.98;30.84
78317;BME280;67572;50.930;18.276;2023-05-29T15:10:51;99158.59;;;24.36;30.43
78317;BME280;67572;50.930;18.276;2023-05-29T15:14:09;99154.16;;;25.55;28.45
78317;BME280;67572;50.930;18.276;2023-05-29T15:17:29;99160.09;;;24.24;30.23
78317;BME280;67572;50.930;18.276;2023-05-29T15:20:33;99162.75;;;23.66;30.41
78317;BME280;67572;50.930;18.276;2023-05-29T15:23:38;99159.72;;;24.27;29.18
78317;BME280;67572;50.930;18.276;2023-05-29T15:26:46;99163.59;;;24.03;29.98
78317;BME280;67572;50.930;18.276;2023-05-29T15:30:19;99165.72;;;23.86;31.45
78317;BME280;67572;50.930;18.276;2023-05-29T15:33:25;99165.88;;;23.25;31.50
78317;BME280;67572;50.930;18.276;2023-05-29T15:36:32;99162.91;;;23.35;33.41
78317;BME280;67572;50.930;18.276;2023-05-29T15:40:04;99167.66;;;23.33;32.28
78317;BME280;67572;50.930;18.276;2023-05-29T15:43:08;99161.13;;;23.57;31.90
78317;BME280;67572;50.930;18.276;2023-05-29T15:46:12;99168.53;;;23.78;31.30
78317;BME280;67572;50.930;18.276;2023-05-29T15:49:15;99167.66;;;23.33;29.65
78317;BME280;67572;50.930;18.276;2023-05-29T15:52:36;99174.44;;;23.82;33.07
78317;BME280;67572;50.930;18.276;2023-05-29T15:55:54;99171.25;;;23.63;33.21
78317;BME280;67572;50.930;18.276;2023-05-29T15:59:12;99171.00;;;23.73;32.60
78317;BME280;67572;50.930;18.276;2023-05-29T16:02:37;99170.50;;;22.87;34.44
78317;BME280;67572;50.930;18.276;2023-05-29T16:05:47;99172.47;;;22.48;34.88
78317;BME280;67572;50.930;18.276;2023-05-29T16:08:50;99165.31;;;22.55;31.09
78317;BME280;67572;50.930;18.276;2023-05-29T16:11:55;99172.22;;;22.80;32.36
78317;BME280;67572;50.930;18.276;2023-05-29T16:15:01;99177.25;;;22.91;31.88
78317;BME280;67572;50.930;18.276;2023-05-29T16:18:06;99168.13;;;23.22;31.59
78317;BME280;67572;50.930;18.276;2023-05-29T16:21:10;99173.38;;;23.23;33.45
78317;BME280;67572;50.930;18.276;2023-05-29T16:24:22;99173.63;;;22.76;33.44
78317;BME280;67572;50.930;18.276;2023-05-29T16:27:45;99165.31;;;22.78;32.83
78317;BME280;67572;50.930;18.276;2023-05-29T16:30:49;99174.03;;;22.65;35.14
78317;BME280;67572;50.930;18.276;2023-05-29T16:33:52;99173.91;;;22.35;36.47